Time;durP1;ratioP1;P1;durP2;ratioP2;P2;SDS_P1;SDS_P2;PMS_P1;PMS_P2;Temp;Humidity;BMP_temperature;BMP_pressure;BME280_temperature;BME280_humidity;BME280_pressure;Samples;Min_cycle;Max_cycle;Signal;HPM_P1;HPM_P2
2020/12/05 00:02:05;;;;;;;19.00;13.03;;;;;;;5.83;100.00;97881.44;4921765;29;20255;-35
2020/12/05 00:04:50;;;;;;;20.13;13.37;;;;;;;5.75;100.00;97885.97;4922074;29;20201;-34
2020/12/05 00:07:36;;;;;;;22.73;14.00;;;;;;;5.74;100.00;97892.81;4922294;29;20209;-33
2020/12/05 00:10:22;;;;;;;20.13;13.80;;;;;;;5.77;100.00;97908.13;4922052;29;20580;-33
2020/12/05 00:13:08;;;;;;;21.50;14.33;;;;;;;5.83;100.00;97910.50;4921952;29;20205;-34
2020/12/05 00:15:54;;;;;;;20.10;13.10;;;;;;;5.84;100.00;97904.47;4921902;29;20205;-35
2020/12/05 00:18:40;;;;;;;19.90;13.97;;;;;;;5.81;100.00;97906.28;4922124;29;20269;-34
2020/12/05 00:21:26;;;;;;;18.17;13.00;;;;;;;5.85;100.00;97907.88;4922090;29;20600;-33
2020/12/05 00:24:11;;;;;;;21.30;13.30;;;;;;;5.83;100.00;97899.38;4921818;29;20229;-35
2020/12/05 00:26:58;;;;;;;21.57;13.53;;;;;;;5.84;100.00;97901.06;4921738;29;20298;-33
2020/12/05 00:29:43;;;;;;;18.83;13.47;;;;;;;5.79;100.00;97901.22;4921880;29;20345;-32
2020/12/05 00:32:29;;;;;;;24.10;14.07;;;;;;;5.76;100.00;97900.47;4920844;29;20555;-34
2020/12/05 00:35:15;;;;;;;21.10;14.13;;;;;;;5.72;100.00;97909.13;4921570;29;20209;-34
2020/12/05 00:38:00;;;;;;;19.33;13.60;;;;;;;5.64;100.00;97918.75;4921220;29;20438;-32
2020/12/05 00:40:46;;;;;;;18.37;13.30;;;;;;;5.73;100.00;97918.50;4921459;29;20265;-32
2020/12/05 00:43:32;;;;;;;19.77;13.70;;;;;;;5.69;100.00;97927.16;4921373;29;20559;-34
2020/12/05 00:46:18;;;;;;;21.33;13.80;;;;;;;5.66;100.00;97911.84;4921596;29;20287;-32
2020/12/05 00:49:04;;;;;;;21.33;14.20;;;;;;;5.83;100.00;97922.47;4921427;29;20204;-34
2020/12/05 00:51:50;;;;;;;23.03;14.33;;;;;;;5.69;100.00;97934.84;4921526;29;20260;-32
2020/12/05 00:54:35;;;;;;;21.80;13.87;;;;;;;5.60;100.00;97938.50;4921585;29;20481;-34
2020/12/05 00:57:21;;;;;;;21.60;13.70;;;;;;;5.63;100.00;97938.41;4921047;29;20215;-33
2020/12/05 01:00:10;;;;;;;22.53;14.80;;;;;;;5.72;100.00;97940.75;4921187;29;20492;-32
2020/12/05 01:02:58;;;;;;;23.93;13.90;;;;;;;5.63;100.00;97950.38;4920981;29;20238;-36
2020/12/05 01:05:44;;;;;;;19.67;13.80;;;;;;;5.66;100.00;97940.91;4921338;29;20721;-33
2020/12/05 01:08:30;;;;;;;20.50;13.00;;;;;;;5.80;100.00;97946.50;4921105;29;20263;-32
2020/12/05 01:11:17;;;;;;;20.17;13.83;;;;;;;5.86;100.00;97941.19;4921086;29;20225;-32
2020/12/05 01:14:03;;;;;;;24.37;14.63;;;;;;;5.82;100.00;97926.78;4920780;29;20214;-33
2020/12/05 01:16:49;;;;;;;23.50;14.73;;;;;;;5.74;100.00;97933.84;4920865;29;20209;-32
2020/12/05 01:19:35;;;;;;;23.07;14.60;;;;;;;5.70;100.00;97934.81;4921086;29;20477;-32
2020/12/05 01:22:21;;;;;;;22.07;14.77;;;;;;;5.95;100.00;97934.19;4920908;29;20229;-31
2020/12/05 01:25:08;;;;;;;20.30;14.47;;;;;;;5.95;100.00;97924.75;4921315;29;20551;-36
2020/12/05 01:27:55;;;;;;;23.00;15.10;;;;;;;6.01;100.00;97923.72;4920974;29;20208;-33
2020/12/05 01:30:41;;;;;;;25.43;15.40;;;;;;;6.05;100.00;97927.88;4920845;29;20631;-32
2020/12/05 01:33:27;;;;;;;24.83;15.97;;;;;;;5.87;100.00;97931.78;4920616;29;20236;-32
2020/12/05 01:36:13;;;;;;;24.70;15.40;;;;;;;5.89;100.00;97935.19;4920658;29;20305;-35
2020/12/05 01:38:58;;;;;;;28.03;15.50;;;;;;;6.20;100.00;97945.41;4920383;29;20203;-35
2020/12/05 01:41:44;;;;;;;23.83;15.40;;;;;;;5.94;100.00;97941.03;4920792;29;20519;-33
2020/12/05 01:44:31;;;;;;;26.63;15.37;;;;;;;6.00;100.00;97942.56;4923547;29;20219;-32
2020/12/05 01:47:19;;;;;;;24.00;15.60;;;;;;;6.14;100.00;97938.75;4924454;29;20209;-32
2020/12/05 01:50:05;;;;;;;25.73;15.67;;;;;;;6.55;100.00;97941.81;4924420;29;20205;-32
2020/12/05 01:52:51;;;;;;;27.40;17.80;;;;;;;6.79;100.00;97943.63;4924683;29;20209;-36
2020/12/05 01:55:41;;;;;;;26.03;16.83;;;;;;;6.97;100.00;97949.91;4924731;29;20611;-36
2020/12/05 01:58:27;;;;;;;22.60;15.30;;;;;;;6.94;100.00;97951.75;4924421;29;20620;-33
2020/12/05 02:01:15;;;;;;;24.27;14.87;;;;;;;5.95;100.00;97962.41;4924738;29;20211;-32
2020/12/05 02:04:02;;;;;;;25.40;16.37;;;;;;;5.84;100.00;97953.22;4924175;29;20233;-34
2020/12/05 02:07:06;;;;;;;24.83;14.97;;;;;;;5.96;100.00;97952.09;4924157;29;20203;-36
2020/12/05 02:09:55;;;;;;;30.90;18.03;;;;;;;6.20;100.00;97961.63;4924331;29;20205;-33
2020/12/05 02:12:49;;;;;;;28.37;17.67;;;;;;;6.55;100.00;97963.19;4924066;29;20624;-33
2020/12/05 02:15:37;;;;;;;33.73;17.57;;;;;;;6.63;100.00;97962.94;4924358;29;20227;-32
2020/12/05 02:18:25;;;;;;;33.83;18.40;;;;;;;6.39;100.00;97956.84;4924313;29;20296;-33
2020/12/05 02:21:12;;;;;;;27.97;18.30;;;;;;;6.17;100.00;97960.91;4924183;29;20202;-36
2020/12/05 02:24:00;;;;;;;29.30;17.37;;;;;;;6.05;100.00;97962.09;4924122;29;20630;-34
2020/12/05 02:26:47;;;;;;;31.43;19.53;;;;;;;6.13;100.00;97957.59;4923501;29;20518;-33
2020/12/05 02:29:34;;;;;;;37.33;20.73;;;;;;;6.16;100.00;97959.22;4924021;29;20202;-36
2020/12/05 02:32:21;;;;;;;34.33;19.17;;;;;;;6.27;100.00;97966.59;4923378;29;20521;-37
2020/12/05 02:35:07;;;;;;;34.53;19.40;;;;;;;6.41;100.00;97959.34;4923622;29;20357;-35
2020/12/05 02:37:57;;;;;;;27.97;18.90;;;;;;;6.12;100.00;97962.75;4923367;29;20201;-35
2020/12/05 02:40:44;;;;;;;32.93;19.57;;;;;;;6.55;100.00;97952.94;4923905;29;20628;-35
2020/12/05 02:43:29;;;;;;;30.00;19.63;;;;;;;6.82;100.00;97952.94;4923452;29;20234;-35
2020/12/05 02:46:16;;;;;;;36.90;20.53;;;;;;;6.65;100.00;97950.06;4923927;29;20267;-33
2020/12/05 02:49:03;;;;;;;34.93;20.50;;;;;;;6.68;100.00;97949.97;4923532;29;20201;-37
2020/12/05 02:51:48;;;;;;;34.40;21.67;;;;;;;6.70;100.00;97956.75;4923917;29;20203;-35
2020/12/05 02:54:34;;;;;;;39.43;22.47;;;;;;;6.77;100.00;97963.38;4923568;29;20201;-35
2020/12/05 02:57:20;;;;;;;34.93;22.23;;;;;;;6.72;100.00;97949.00;4923584;29;20206;-35
2020/12/05 03:00:06;;;;;;;38.27;24.27;;;;;;;6.35;100.00;97950.13;4923437;29;20272;-34
2020/12/05 03:02:52;;;;;;;42.97;24.40;;;;;;;6.27;100.00;97949.47;4923317;29;20256;-36
2020/12/05 03:05:37;;;;;;;35.20;22.30;;;;;;;6.41;100.00;97955.03;4923084;29;20306;-35
2020/12/05 03:08:23;;;;;;;39.40;23.50;;;;;;;6.46;100.00;97947.22;4923449;29;20206;-39
2020/12/05 03:11:08;;;;;;;37.67;22.50;;;;;;;6.63;100.00;97949.25;4922976;29;20300;-34
2020/12/05 03:13:55;;;;;;;37.03;21.60;;;;;;;6.60;100.00;97954.50;4922282;29;20204;-33
2020/12/05 03:16:41;;;;;;;38.47;23.00;;;;;;;6.75;100.00;97961.75;4923065;29;20273;-38
2020/12/05 03:19:27;;;;;;;36.93;23.00;;;;;;;6.80;100.00;97962.44;4922921;29;20268;-39
2020/12/05 03:22:13;;;;;;;37.67;23.47;;;;;;;6.78;100.00;97956.53;4922540;29;20212;-36
2020/12/05 03:24:59;;;;;;;39.97;25.23;;;;;;;6.50;100.00;97964.22;4923404;29;20375;-38
2020/12/05 03:27:44;;;;;;;34.77;22.43;;;;;;;6.68;100.00;97970.53;4922917;29;20224;-37
2020/12/05 03:30:31;;;;;;;40.33;24.67;;;;;;;6.72;100.00;97966.97;4923122;29;20237;-36
2020/12/05 03:33:16;;;;;;;37.27;23.90;;;;;;;6.79;100.00;97965.91;4922540;29;20685;-37
2020/12/05 03:36:02;;;;;;;39.93;25.03;;;;;;;6.76;100.00;97984.00;4921822;29;20226;-35
2020/12/05 03:38:48;;;;;;;44.80;26.00;;;;;;;6.22;100.00;97980.41;4923025;29;20231;-36
2020/12/05 03:41:33;;;;;;;42.37;25.27;;;;;;;6.57;100.00;97987.13;4922891;29;20213;-39
2020/12/05 03:44:19;;;;;;;42.33;24.70;;;;;;;6.60;100.00;97988.72;4922544;29;20323;-37
2020/12/05 03:47:06;;;;;;;41.77;25.97;;;;;;;6.73;100.00;97991.78;4922837;29;20330;-37
2020/12/05 03:49:51;;;;;;;46.67;26.70;;;;;;;6.55;100.00;97996.59;4922812;29;20200;-34
2020/12/05 03:52:37;;;;;;;48.40;26.83;;;;;;;6.50;100.00;97995.88;4922639;29;20479;-34
2020/12/05 03:55:23;;;;;;;43.40;25.77;;;;;;;6.41;100.00;97996.13;4922344;29;20266;-37
2020/12/05 03:58:08;;;;;;;49.30;27.70;;;;;;;6.40;100.00;97997.00;4922507;29;20208;-36
2020/12/05 04:00:54;;;;;;;50.27;28.63;;;;;;;6.20;100.00;98007.00;4922109;29;20207;-34
2020/12/05 04:03:40;;;;;;;46.20;26.77;;;;;;;6.40;100.00;98001.31;4922431;29;20234;-34
2020/12/05 04:06:25;;;;;;;47.10;26.87;;;;;;;6.57;100.00;98010.22;4921471;29;20204;-35
2020/12/05 04:09:11;;;;;;;46.50;27.87;;;;;;;6.31;100.00;98001.59;4922043;29;20215;-38
2020/12/05 04:11:57;;;;;;;48.40;28.60;;;;;;;6.42;100.00;98013.22;4922295;29;20305;-38
2020/12/05 04:14:43;;;;;;;51.10;29.20;;;;;;;6.35;100.00;98011.72;4922046;29;20606;-38
2020/12/05 04:17:29;;;;;;;47.03;27.23;;;;;;;6.47;100.00;98010.53;4922138;29;20485;-36
2020/12/05 04:20:16;;;;;;;44.10;27.70;;;;;;;6.34;100.00;98017.75;4922388;29;20655;-37
2020/12/05 04:23:02;;;;;;;51.57;28.90;;;;;;;6.56;100.00;98030.81;4922111;29;20234;-33
2020/12/05 04:25:47;;;;;;;47.47;28.97;;;;;;;6.49;100.00;98031.88;4921829;29;20623;-38
2020/12/05 04:28:33;;;;;;;55.00;30.43;;;;;;;6.26;100.00;98041.94;4922260;29;20370;-35
2020/12/05 04:31:28;;;;;;;63.87;34.43;;;;;;;6.48;100.00;98033.59;4921905;29;20670;-37
2020/12/05 04:34:14;;;;;;;101.73;46.70;;;;;;;6.57;100.00;98033.34;4921996;29;20248;-35
2020/12/05 04:37:12;;;;;;;109.63;48.70;;;;;;;6.05;100.00;98033.09;4921749;29;20262;-37
2020/12/05 04:39:57;;;;;;;121.53;54.80;;;;;;;5.62;100.00;98039.31;4921755;29;20205;-38
2020/12/05 04:42:44;;;;;;;116.13;51.43;;;;;;;5.97;100.00;98040.19;4921857;29;20279;-37
2020/12/05 04:45:31;;;;;;;105.60;46.30;;;;;;;6.32;100.00;98045.19;4921728;29;20263;-36
2020/12/05 04:48:17;;;;;;;101.27;43.70;;;;;;;6.01;100.00;98052.03;4921414;29;20211;-33
2020/12/05 04:51:04;;;;;;;93.30;41.83;;;;;;;6.29;100.00;98052.97;4921420;29;20299;-37
2020/12/05 04:53:50;;;;;;;80.80;38.67;;;;;;;6.22;100.00;98049.72;4921715;29;20252;-35
2020/12/05 04:56:38;;;;;;;79.30;36.67;;;;;;;6.21;100.00;98042.91;4921389;29;20207;-33
2020/12/05 04:59:23;;;;;;;58.23;32.50;;;;;;;6.20;100.00;98045.50;4921166;29;20239;-35
2020/12/05 05:02:10;;;;;;;62.33;35.90;;;;;;;6.06;100.00;98055.31;4921379;29;20344;-36
2020/12/05 05:04:56;;;;;;;75.40;36.80;;;;;;;6.08;100.00;98059.53;4920735;29;20603;-37
2020/12/05 05:07:49;;;;;;;72.80;38.40;;;;;;;5.83;100.00;98068.69;4921441;29;20542;-38
2020/12/05 05:10:36;;;;;;;62.40;35.13;;;;;;;5.60;100.00;98068.44;4920557;29;20204;-33
2020/12/05 05:13:23;;;;;;;68.87;37.80;;;;;;;5.58;100.00;98083.88;4921107;29;20195;-34
2020/12/05 05:16:14;;;;;;;58.20;35.10;;;;;;;5.53;100.00;98078.00;4921121;29;20608;-35
2020/12/05 05:19:19;;;;;;;64.03;35.60;;;;;;;5.56;100.00;98089.91;4921182;29;20669;-35
2020/12/05 05:22:06;;;;;;;65.53;36.33;;;;;;;5.94;100.00;98089.84;4920915;29;20613;-36
2020/12/05 05:25:01;;;;;;;64.20;36.23;;;;;;;5.99;100.00;98076.91;4921144;29;20232;-35
2020/12/05 05:27:58;;;;;;;63.87;35.87;;;;;;;5.99;100.00;98076.91;4920780;29;20204;-37
2020/12/05 05:30:58;;;;;;;63.73;36.83;;;;;;;6.03;100.00;98078.47;4920564;29;20207;-33
2020/12/05 05:33:46;;;;;;;59.60;35.77;;;;;;;5.96;100.00;98066.72;4920771;29;20224;-33
2020/12/05 05:36:31;;;;;;;65.40;37.60;;;;;;;5.92;100.00;98072.81;4920736;29;20207;-33
2020/12/05 05:39:18;;;;;;;65.90;37.33;;;;;;;5.98;100.00;98075.22;4921123;29;20264;-33
2020/12/05 05:42:03;;;;;;;67.03;38.00;;;;;;;6.13;100.00;98078.22;4920800;29;20224;-35
2020/12/05 05:44:50;;;;;;;66.53;38.33;;;;;;;6.15;100.00;98084.16;4920147;29;20507;-35
2020/12/05 05:47:36;;;;;;;74.77;39.23;;;;;;;5.77;100.00;98089.41;4921109;29;20302;-34
2020/12/05 05:50:23;;;;;;;70.63;37.83;;;;;;;5.70;100.00;98088.69;4920730;29;20207;-34
2020/12/05 05:53:21;;;;;;;69.77;37.77;;;;;;;5.95;100.00;98088.13;4920457;29;20303;-37
2020/12/05 05:56:06;;;;;;;65.07;36.03;;;;;;;5.55;100.00;98094.22;4920757;29;20205;-34
2020/12/05 05:58:52;;;;;;;62.90;36.23;;;;;;;5.92;100.00;98096.75;4920307;29;20491;-36
2020/12/05 06:01:40;;;;;;;61.37;37.37;;;;;;;5.73;100.00;98104.03;4920616;29;20209;-38
2020/12/05 06:04:30;;;;;;;71.87;39.30;;;;;;;5.94;100.00;98104.41;4920894;29;20293;-36
2020/12/05 06:07:17;;;;;;;74.27;39.80;;;;;;;6.04;100.00;98096.41;4920524;29;20621;-39
2020/12/05 06:10:03;;;;;;;60.40;37.37;;;;;;;6.26;100.00;98086.44;4920815;29;20201;-35
2020/12/05 06:12:52;;;;;;;67.43;38.67;;;;;;;5.70;100.00;98092.97;4920273;29;20222;-34
2020/12/05 06:15:38;;;;;;;69.43;38.90;;;;;;;6.08;100.00;98099.75;4920004;29;20203;-33
2020/12/05 06:18:25;;;;;;;66.93;38.63;;;;;;;6.26;100.00;98104.41;4920619;29;20342;-36
2020/12/05 06:21:11;;;;;;;67.10;39.97;;;;;;;6.02;100.00;98116.13;4920698;29;20380;-35
2020/12/05 06:24:04;;;;;;;66.73;39.60;;;;;;;5.70;100.00;98118.63;4920065;29;20643;-34
2020/12/05 06:26:53;;;;;;;58.73;36.57;;;;;;;5.53;100.00;98135.25;4919270;29;20259;-33
2020/12/05 06:29:39;;;;;;;61.23;37.50;;;;;;;5.57;100.00;98148.88;4921762;29;20208;-32
2020/12/05 06:32:47;;;;;;;64.10;37.40;;;;;;;5.52;100.00;98163.50;4923693;29;20245;-36
2020/12/05 06:35:34;;;;;;;66.33;38.77;;;;;;;5.42;100.00;98169.69;4923351;29;20610;-36
2020/12/05 06:38:20;;;;;;;67.33;38.43;;;;;;;5.43;100.00;98176.50;4923827;29;20211;-37
2020/12/05 06:41:06;;;;;;;65.70;39.40;;;;;;;5.35;100.00;98189.53;4923870;29;20687;-35
2020/12/05 06:44:11;;;;;;;64.07;37.07;;;;;;;5.32;100.00;98204.13;4923089;29;20426;-33
2020/12/05 06:46:58;;;;;;;57.00;35.27;;;;;;;5.39;100.00;98208.25;4923712;29;20622;-33
2020/12/05 06:49:52;;;;;;;66.10;38.67;;;;;;;5.63;100.00;98210.25;4923760;29;20263;-34
2020/12/05 06:52:42;;;;;;;63.50;36.17;;;;;;;5.44;100.00;98214.94;4923713;29;20310;-34
2020/12/05 06:55:32;;;;;;;58.07;34.73;;;;;;;5.49;100.00;98228.50;4923230;29;20207;-33
2020/12/05 06:58:24;;;;;;;61.73;35.87;;;;;;;5.50;100.00;98237.91;4923335;29;20213;-35
2020/12/05 07:01:27;;;;;;;58.10;36.57;;;;;;;5.34;100.00;98235.69;4923239;29;20210;-33
2020/12/05 07:04:20;;;;;;;51.03;32.37;;;;;;;5.28;100.00;98236.66;4923213;29;20266;-36
2020/12/05 07:07:29;;;;;;;53.83;33.37;;;;;;;5.44;100.00;98242.28;4922967;29;20249;-33
2020/12/05 07:10:16;;;;;;;57.80;34.57;;;;;;;5.67;100.00;98245.22;4923672;29;20597;-32
2020/12/05 07:13:12;;;;;;;51.33;31.57;;;;;;;5.53;100.00;98244.69;4923331;29;20621;-36
2020/12/05 07:16:13;;;;;;;53.23;32.70;;;;;;;5.90;100.00;98246.47;4923085;29;20207;-33
2020/12/05 07:19:00;;;;;;;57.47;32.83;;;;;;;5.85;100.00;98255.06;4922785;29;20296;-33
2020/12/05 07:21:46;;;;;;;48.03;30.83;;;;;;;5.92;100.00;98253.25;4922817;29;20212;-36
2020/12/05 07:24:32;;;;;;;48.90;28.50;;;;;;;5.52;100.00;98258.38;4922975;29;20237;-33
2020/12/05 07:27:18;;;;;;;112.90;45.00;;;;;;;5.66;100.00;98265.75;4922957;29;20367;-33
2020/12/05 07:30:05;;;;;;;535.07;294.10;;;;;;;5.43;100.00;98272.22;4923130;29;20325;-33
2020/12/05 07:32:52;;;;;;;62.97;37.77;;;;;;;5.43;100.00;98273.94;4922407;29;20534;-36
2020/12/05 07:35:38;;;;;;;46.37;30.13;;;;;;;5.53;100.00;98276.28;4922982;29;20298;-37
2020/12/05 07:38:23;;;;;;;48.30;30.40;;;;;;;5.61;100.00;98275.28;4922543;29;20274;-33
2020/12/05 07:41:10;;;;;;;52.83;30.27;;;;;;;5.69;100.00;98279.38;4921728;29;20260;-35
2020/12/05 07:43:57;;;;;;;52.83;31.30;;;;;;;5.76;100.00;98290.34;4922322;29;20508;-35
2020/12/05 07:46:43;;;;;;;47.87;28.47;;;;;;;5.49;100.00;98297.75;4922605;29;20357;-34
2020/12/05 07:49:28;;;;;;;48.63;30.27;;;;;;;5.46;100.00;98304.66;4922446;29;20201;-32
2020/12/05 07:52:15;;;;;;;49.53;29.87;;;;;;;5.58;100.00;98313.84;4921972;29;20200;-36
2020/12/05 07:55:02;;;;;;;48.43;28.47;;;;;;;5.59;100.00;98318.09;4922643;29;20206;-37
2020/12/05 07:57:51;;;;;;;48.07;28.27;;;;;;;5.57;100.00;98333.50;4921878;29;20215;-33
2020/12/05 08:00:37;;;;;;;37.67;25.20;;;;;;;5.40;100.00;98340.66;4922388;29;20216;-34
2020/12/05 08:03:59;;;;;;;51.43;30.97;;;;;;;5.72;100.00;98338.31;4921952;29;20290;-34
2020/12/05 08:07:00;;;;;;;48.80;30.10;;;;;;;5.69;100.00;98346.06;4921407;29;20273;-35
2020/12/05 08:09:46;;;;;;;37.87;24.13;;;;;;;5.56;100.00;98346.34;4922344;29;20475;-33
2020/12/05 08:12:59;;;;;;;47.37;26.17;;;;;;;5.71;100.00;98359.72;4921909;29;20352;-36
2020/12/05 08:15:48;;;;;;;34.27;21.83;;;;;;;5.66;100.00;98364.06;4902853;29;20206;-34
2020/12/05 08:18:35;;;;;;;43.37;25.47;;;;;;;6.04;100.00;98372.72;4921175;29;20207;-36
2020/12/05 08:21:23;;;;;;;48.27;31.40;;;;;;;5.61;100.00;98377.84;4921097;29;20270;-34
2020/12/05 08:24:11;;;;;;;47.20;35.17;;;;;;;5.65;100.00;98388.03;4921393;29;20240;-35
2020/12/05 08:26:57;;;;;;;43.17;27.73;;;;;;;5.63;100.00;98397.47;4921754;29;20200;-32
2020/12/05 08:29:44;;;;;;;32.40;22.83;;;;;;;5.79;100.00;98403.16;4921381;29;20207;-34
2020/12/05 08:32:31;;;;;;;32.50;22.83;;;;;;;5.74;100.00;98405.81;4920772;29;20373;-32
2020/12/05 08:35:18;;;;;;;32.53;21.63;;;;;;;5.74;100.00;98408.38;4920565;29;20201;-36
2020/12/05 08:38:04;;;;;;;36.23;23.03;;;;;;;5.82;100.00;98409.06;4920967;29;20200;-33
2020/12/05 08:41:03;;;;;;;32.80;19.77;;;;;;;5.65;100.00;98407.69;4920889;29;20311;-37
2020/12/05 08:43:49;;;;;;;35.37;22.87;;;;;;;5.92;100.00;98408.94;4920793;29;20638;-34
2020/12/05 08:46:37;;;;;;;30.17;20.07;;;;;;;5.70;100.00;98406.75;4921103;29;20215;-34
2020/12/05 08:49:24;;;;;;;33.23;20.80;;;;;;;6.03;100.00;98409.53;4921171;29;20341;-34
2020/12/05 08:52:10;;;;;;;34.70;19.63;;;;;;;5.53;100.00;98424.19;4920337;29;20208;-33
2020/12/05 08:54:56;;;;;;;33.40;21.13;;;;;;;5.85;100.00;98426.97;4921287;29;20199;-34
2020/12/05 08:57:52;;;;;;;29.37;20.47;;;;;;;6.37;100.00;98428.50;4920919;29;20268;-33
2020/12/05 09:00:39;;;;;;;32.50;21.07;;;;;;;6.38;100.00;98442.19;4921241;29;20209;-33
2020/12/05 09:03:24;;;;;;;30.40;20.67;;;;;;;6.22;100.00;98445.06;4920914;29;20209;-35
2020/12/05 09:06:10;;;;;;;23.80;17.10;;;;;;;5.91;100.00;98453.41;4921041;29;20367;-37
2020/12/05 09:08:56;;;;;;;27.07;19.43;;;;;;;5.96;100.00;98460.16;4920656;29;20365;-39
2020/12/05 09:11:42;;;;;;;27.27;19.57;;;;;;;6.15;100.00;98473.47;4920887;29;20512;-34
2020/12/05 09:14:28;;;;;;;27.30;19.33;;;;;;;6.13;100.00;98482.94;4920804;29;20305;-33
2020/12/05 09:17:22;;;;;;;24.93;18.20;;;;;;;6.05;100.00;98483.06;4920454;29;20209;-33
2020/12/05 09:20:16;;;;;;;25.83;18.07;;;;;;;6.11;100.00;98490.66;4936870;29;20221;-33
2020/12/05 09:23:03;;;;;;;25.90;18.20;;;;;;;6.19;100.00;98500.78;4939849;29;20196;-34
2020/12/05 09:25:59;;;;;;;21.43;16.30;;;;;;;6.23;100.00;98505.81;4939980;29;20205;-34
2020/12/05 09:28:45;;;;;;;26.10;18.40;;;;;;;6.71;100.00;98508.22;4931210;29;20208;-32
2020/12/05 09:31:32;;;;;;;25.03;17.93;;;;;;;6.43;100.00;98502.81;4919961;29;20205;-36
2020/12/05 09:34:34;;;;;;;23.50;17.37;;;;;;;7.12;100.00;98509.88;4920810;29;20202;-33
2020/12/05 09:37:20;;;;;;;24.33;17.27;;;;;;;6.91;100.00;98515.50;4920526;29;20200;-34
2020/12/05 09:40:10;;;;;;;21.23;15.87;;;;;;;6.97;100.00;98510.22;4921084;29;20245;-37
2020/12/05 09:42:56;;;;;;;22.40;16.00;;;;;;;6.90;100.00;98506.09;4921381;29;20200;-35
2020/12/05 09:45:43;;;;;;;21.80;14.77;;;;;;;7.03;100.00;98506.66;4930247;29;20575;-34
2020/12/05 09:48:29;;;;;;;22.17;16.03;;;;;;;6.96;100.00;98495.69;4939916;29;20208;-35
2020/12/05 09:51:15;;;;;;;20.60;15.97;;;;;;;7.00;100.00;98497.28;4920643;29;20300;-36
2020/12/05 09:54:01;;;;;;;19.80;15.50;;;;;;;6.78;100.00;98498.69;4919846;29;20300;-33
2020/12/05 09:56:50;;;;;;;21.40;15.63;;;;;;;7.59;100.00;98502.75;4919837;29;20213;-37
2020/12/05 09:59:35;;;;;;;19.17;14.90;;;;;;;7.64;100.00;98498.28;4928529;29;20208;-34
2020/12/05 10:02:21;;;;;;;17.30;13.53;;;;;;;8.34;100.00;98511.06;4939388;29;20253;-36
2020/12/05 10:05:11;;;;;;;15.10;12.93;;;;;;;7.89;100.00;98519.09;4941046;29;20316;-37
2020/12/05 10:07:57;;;;;;;17.47;13.87;;;;;;;7.80;100.00;98524.47;4930558;29;20205;-37
2020/12/05 10:10:44;;;;;;;14.43;12.70;;;;;;;8.06;100.00;98527.22;4942846;29;20217;-33
2020/12/05 10:13:34;;;;;;;17.93;13.27;;;;;;;8.68;100.00;98518.66;4942334;29;20212;-37
2020/12/05 10:16:23;;;;;;;14.50;11.30;;;;;;;8.48;100.00;98520.06;4942918;29;20487;-33
2020/12/05 10:19:08;;;;;;;15.77;11.13;;;;;;;9.26;100.00;98520.28;4935999;29;20220;-34
2020/12/05 10:21:54;;;;;;;13.63;11.43;;;;;;;8.92;100.00;98528.25;4942976;29;20705;-36
2020/12/05 10:24:39;;;;;;;14.90;11.90;;;;;;;9.01;100.00;98533.09;4942410;29;20231;-33
2020/12/05 10:27:28;;;;;;;14.23;10.67;;;;;;;8.12;100.00;98526.22;4942469;29;20311;-37
2020/12/05 10:30:14;;;;;;;15.43;12.80;;;;;;;8.77;100.00;98534.72;4942272;29;20205;-39
2020/12/05 10:33:03;;;;;;;12.63;11.27;;;;;;;8.99;100.00;98542.66;4941810;29;20539;-36
2020/12/05 10:35:48;;;;;;;13.10;9.27;;;;;;;8.59;100.00;98555.88;4941760;29;20196;-33
2020/12/05 10:38:34;;;;;;;12.33;10.37;;;;;;;9.02;100.00;98523.63;4941988;29;20196;-35
2020/12/05 10:41:20;;;;;;;13.43;11.93;;;;;;;9.47;100.00;98524.75;4941576;29;20596;-33
2020/12/05 10:44:06;;;;;;;12.13;10.80;;;;;;;8.73;100.00;98538.25;4941720;29;20261;-33
2020/12/05 10:46:53;;;;;;;12.37;10.83;;;;;;;9.36;100.00;98526.88;4942053;29;20209;-33
2020/12/05 10:49:39;;;;;;;11.90;10.37;;;;;;;8.85;100.00;98519.84;4941942;29;20614;-35
2020/12/05 10:52:24;;;;;;;11.30;10.03;;;;;;;9.39;100.00;98521.59;4941875;29;20200;-35
2020/12/05 10:55:10;;;;;;;13.03;10.53;;;;;;;9.82;100.00;98517.56;4941693;29;20221;-36
2020/12/05 10:57:56;;;;;;;11.83;9.40;;;;;;;9.43;100.00;98519.75;4941899;29;20200;-36
2020/12/05 11:00:42;;;;;;;11.77;10.03;;;;;;;9.48;100.00;98525.63;4941419;29;20472;-36
2020/12/05 11:03:29;;;;;;;11.50;9.63;;;;;;;9.41;100.00;98544.75;4941520;29;20272;-37
2020/12/05 11:06:21;;;;;;;9.57;8.57;;;;;;;8.97;100.00;98554.75;4940874;29;20204;-34
2020/12/05 11:09:07;;;;;;;10.53;8.97;;;;;;;8.80;100.00;98577.56;4941006;29;20337;-34
2020/12/05 11:11:53;;;;;;;9.93;8.47;;;;;;;8.31;100.00;98571.19;4941428;29;20652;-34
2020/12/05 11:14:38;;;;;;;10.13;8.07;;;;;;;8.17;100.00;98563.84;4941657;29;20201;-34
2020/12/05 11:17:25;;;;;;;11.10;9.33;;;;;;;8.14;100.00;98556.19;4941374;29;20604;-35
2020/12/05 11:20:12;;;;;;;11.67;9.47;;;;;;;7.33;100.00;98553.97;4941666;29;20207;-36
2020/12/05 11:22:58;;;;;;;12.93;10.40;;;;;;;7.79;100.00;98553.69;4940850;29;20212;-35
2020/12/05 11:25:43;;;;;;;15.17;11.80;;;;;;;7.99;100.00;98548.03;4940915;29;20235;-36
2020/12/05 11:28:29;;;;;;;11.20;8.37;;;;;;;8.03;100.00;98549.63;4941628;29;20405;-36
2020/12/05 11:31:15;;;;;;;10.83;9.30;;;;;;;8.47;100.00;98548.47;4940748;29;20205;-35
2020/12/05 11:34:01;;;;;;;10.07;8.13;;;;;;;7.71;100.00;98551.31;4940807;29;20239;-33
2020/12/05 11:36:48;;;;;;;10.63;8.00;;;;;;;7.78;100.00;98568.31;4941233;29;20198;-34
2020/12/05 11:39:33;;;;;;;10.10;8.93;;;;;;;7.88;100.00;98574.03;4941321;29;20201;-35
2020/12/05 11:42:19;;;;;;;12.43;9.40;;;;;;;7.79;100.00;98572.56;4940913;29;20206;-36
2020/12/05 11:45:08;;;;;;;9.03;8.10;;;;;;;8.43;100.00;98572.63;4939892;29;20230;-35
2020/12/05 11:47:54;;;;;;;8.43;7.53;;;;;;;7.60;100.00;98579.03;4941006;29;20298;-36
2020/12/05 11:50:39;;;;;;;10.27;9.13;;;;;;;7.37;100.00;98578.75;4941052;29;20616;-32
2020/12/05 11:53:26;;;;;;;12.20;7.77;;;;;;;7.27;100.00;98588.38;4940857;29;20683;-33
2020/12/05 11:56:14;;;;;;;9.97;8.87;;;;;;;7.19;100.00;98598.00;4940144;29;20208;-34
2020/12/05 11:59:01;;;;;;;11.53;9.00;;;;;;;7.26;100.00;98584.13;4940074;29;20691;-35
2020/12/05 12:01:47;;;;;;;9.93;7.57;;;;;;;7.09;100.00;98587.06;4940126;29;20204;-35
2020/12/05 12:04:38;;;;;;;8.43;7.37;;;;;;;7.13;100.00;98605.84;4939871;29;20231;-37
2020/12/05 12:07:26;;;;;;;14.90;8.47;;;;;;;7.20;100.00;98605.66;4939800;29;20587;-39
2020/12/05 12:10:12;;;;;;;10.03;8.17;;;;;;;7.23;100.00;98621.03;4940251;29;20260;-34
2020/12/05 12:12:58;;;;;;;9.87;8.27;;;;;;;7.67;100.00;98624.31;4940367;29;20216;-34
2020/12/05 12:15:44;;;;;;;10.27;8.27;;;;;;;7.38;100.00;98624.16;4939553;29;20200;-34
2020/12/05 12:18:30;;;;;;;9.07;8.17;;;;;;;7.69;100.00;98629.44;4940112;29;20200;-33
2020/12/05 12:21:26;;;;;;;7.90;7.03;;;;;;;7.39;100.00;98642.13;4939910;29;20208;-38
2020/12/05 12:24:23;;;;;;;8.73;7.83;;;;;;;7.88;100.00;98652.13;4940127;29;20290;-35
2020/12/05 12:27:13;;;;;;;9.93;7.73;;;;;;;7.67;100.00;98642.34;4938669;29;20611;-34
2020/12/05 12:29:59;;;;;;;8.80;7.57;;;;;;;7.90;100.00;98649.50;4939941;29;20260;-33
2020/12/05 12:32:47;;;;;;;7.50;6.10;;;;;;;7.95;100.00;98661.41;4939650;29;20242;-38
2020/12/05 12:35:33;;;;;;;7.80;5.43;;;;;;;7.71;100.00;98650.84;4939540;29;20211;-33
2020/12/05 12:38:19;;;;;;;4.23;3.83;;;;;;;8.08;100.00;98666.25;4939199;29;20209;-33
2020/12/05 12:41:04;;;;;;;3.17;2.87;;;;;;;7.81;100.00;98667.75;4939176;29;20214;-35
2020/12/05 12:43:52;;;;;;;2.90;2.70;;;;;;;7.97;100.00;98668.25;4939545;29;20204;-36
2020/12/05 12:46:47;;;;;;;3.03;2.73;;;;;;;7.54;100.00;98662.38;4939587;29;20283;-36
2020/12/05 12:49:36;;;;;;;2.60;2.40;;;;;;;8.58;100.00;98665.00;4938894;29;20715;-36
2020/12/05 12:52:22;;;;;;;3.30;2.43;;;;;;;8.03;100.00;98668.91;4939524;29;20480;-35
2020/12/05 12:55:13;;;;;;;4.03;3.00;;;;;;;7.44;100.00;98662.59;4939182;29;20195;-34